Main page
METAR-TAF:

METAR-TAF

Airports :

Pula, Croatia

Pula Airport

latitude: 44-54N, longitude: 013-55E, elevation: 63 m

Current weather observation

The report was made 24 minutes ago, at 04:00 UTC
Wind 11 kt from the East/Northeast
Temperature 9°C
Humidity 71%
Pressure 1016 hPa
Visibility 10 km or more
no clouds below 1500 m and no cumulonimbus

METAR: LDPL 180400Z AUTO 07011KT CAVOK 09/04 Q1016 NOSIG

Time: 05:24 (04:24 UTC)

Forecast

The report was made 4 hours and 59 minutes ago, at 23:25 UTC
Forecast valid from 18 at 00 UTC to 19 at 00 UTC
Wind 10 kt from the East/Northeast
Visibility 10 km or more
no clouds below 1500 m and no cumulonimbus

TAF: LDPL 172325Z 1800/1900 07010KT CAVOK TX13/1813Z TN06/1823Z

Weather observations and forecasts of more than 4000 airports (METAR and TAF reports).

The available stations are represented by yellow and red dots on the map.

Hover mouse over dot to see the name of the station.

Then click to see weather observations and forecasts.

To change the map : click on the green buttons with a black cross to zoom in, on the green button with a dash to zoom out, or on the green arrows for adjacent maps.


METAR-TAF: